sensor_id;sensor_type;location;lat;lon;timestamp;pressure;altitude;pressure_sealevel;temperature;humidity
62725;BME280;49026;52.600;4.694;2022-08-21T00:01:49;101653.19;;;14.69;61.05
62725;BME280;49026;52.600;4.694;2022-08-21T00:04:14;101656.81;;;14.67;61.10
62725;BME280;49026;52.600;4.694;2022-08-21T00:06:40;101652.53;;;14.64;61.27
62725;BME280;49026;52.600;4.694;2022-08-21T00:09:08;101656.22;;;14.60;61.55
62725;BME280;49026;52.600;4.694;2022-08-21T00:11:35;101652.91;;;14.55;61.31
62725;BME280;49026;52.600;4.694;2022-08-21T00:14:01;101644.31;;;14.50;61.30
62725;BME280;49026;52.600;4.694;2022-08-21T00:16:26;101645.38;;;14.45;61.37
62725;BME280;49026;52.600;4.694;2022-08-21T00:18:54;101641.13;;;14.41;61.38
62725;BME280;49026;52.600;4.694;2022-08-21T00:21:19;101634.28;;;14.37;61.60
62725;BME280;49026;52.600;4.694;2022-08-21T00:23:48;101632.69;;;14.33;61.52
62725;BME280;49026;52.600;4.694;2022-08-21T00:26:13;101631.91;;;14.31;61.75
62725;BME280;49026;52.600;4.694;2022-08-21T00:28:38;101638.97;;;14.31;61.50
62725;BME280;49026;52.600;4.694;2022-08-21T00:31:04;101643.41;;;14.30;61.94
62725;BME280;49026;52.600;4.694;2022-08-21T00:33:30;101638.91;;;14.32;61.75
62725;BME280;49026;52.600;4.694;2022-08-21T00:35:56;101634.41;;;14.34;61.87
62725;BME280;49026;52.600;4.694;2022-08-21T00:38:25;101643.13;;;14.36;62.04
62725;BME280;49026;52.600;4.694;2022-08-21T00:40:56;101639.56;;;14.37;61.94
62725;BME280;49026;52.600;4.694;2022-08-21T00:43:29;101631.56;;;14.39;62.41
62725;BME280;49026;52.600;4.694;2022-08-21T00:45:56;101639.44;;;14.40;62.16
62725;BME280;49026;52.600;4.694;2022-08-21T00:48:26;101636.81;;;14.40;62.23
62725;BME280;49026;52.600;4.694;2022-08-21T00:51:05;101644.72;;;14.40;62.17
62725;BME280;49026;52.600;4.694;2022-08-21T00:53:32;101641.31;;;14.38;62.08
62725;BME280;49026;52.600;4.694;2022-08-21T00:55:59;101636.13;;;14.35;62.25
62725;BME280;49026;52.600;4.694;2022-08-21T00:58:27;101641.56;;;14.32;62.38
62725;BME280;49026;52.600;4.694;2022-08-21T01:00:56;101634.66;;;14.28;62.39
62725;BME280;49026;52.600;4.694;2022-08-21T01:03:24;101637.31;;;14.28;62.43
62725;BME280;49026;52.600;4.694;2022-08-21T01:05:51;101629.53;;;14.25;62.61
62725;BME280;49026;52.600;4.694;2022-08-21T01:08:17;101627.81;;;14.24;62.71
62725;BME280;49026;52.600;4.694;2022-08-21T01:10:44;101632.25;;;14.23;62.84
62725;BME280;49026;52.600;4.694;2022-08-21T01:13:14;101629.53;;;14.25;62.82
62725;BME280;49026;52.600;4.694;2022-08-21T01:15:43;101627.75;;;14.25;62.79
62725;BME280;49026;52.600;4.694;2022-08-21T01:18:11;101635.69;;;14.25;63.59
62725;BME280;49026;52.600;4.694;2022-08-21T01:20:38;101624.25;;;14.25;63.08
62725;BME280;49026;52.600;4.694;2022-08-21T01:23:05;101623.31;;;14.26;62.89
62725;BME280;49026;52.600;4.694;2022-08-21T01:25:33;101625.94;;;14.26;62.98
62725;BME280;49026;52.600;4.694;2022-08-21T01:28:03;101631.31;;;14.24;63.00
62725;BME280;49026;52.600;4.694;2022-08-21T01:30:32;101622.53;;;14.24;63.26
62725;BME280;49026;52.600;4.694;2022-08-21T01:32:58;101619.88;;;14.24;63.28
62725;BME280;49026;52.600;4.694;2022-08-21T01:35:24;101617.22;;;14.24;63.19
62725;BME280;49026;52.600;4.694;2022-08-21T01:37:52;101622.66;;;14.21;63.18
62725;BME280;49026;52.600;4.694;2022-08-21T01:40:19;101621.06;;;14.17;63.40
62725;BME280;49026;52.600;4.694;2022-08-21T01:42:45;101621.84;;;14.19;63.57
62725;BME280;49026;52.600;4.694;2022-08-21T01:45:12;101622.53;;;14.24;63.60
62725;BME280;49026;52.600;4.694;2022-08-21T01:47:40;101622.38;;;14.27;63.58
62725;BME280;49026;52.600;4.694;2022-08-21T01:50:10;101623.19;;;14.29;64.36
62725;BME280;49026;52.600;4.694;2022-08-21T01:52:36;101622.09;;;14.33;63.93
62725;BME280;49026;52.600;4.694;2022-08-21T01:55:03;101615.00;;;14.35;63.66
62725;BME280;49026;52.600;4.694;2022-08-21T01:57:29;101596.41;;;14.37;63.68
62725;BME280;49026;52.600;4.694;2022-08-21T01:59:54;101605.13;;;14.39;63.57
62725;BME280;49026;52.600;4.694;2022-08-21T02:02:20;101598.13;;;14.38;63.74
62725;BME280;49026;52.600;4.694;2022-08-21T02:04:47;101592.88;;;14.36;63.71
62725;BME280;49026;52.600;4.694;2022-08-21T02:07:13;101597.41;;;14.34;63.88
62725;BME280;49026;52.600;4.694;2022-08-21T02:09:38;101594.03;;;14.31;63.84
62725;BME280;49026;52.600;4.694;2022-08-21T02:12:06;101590.53;;;14.30;64.00
62725;BME280;49026;52.600;4.694;2022-08-21T02:14:31;101597.53;;;14.31;64.05
62725;BME280;49026;52.600;4.694;2022-08-21T02:16:59;101592.44;;;14.26;64.09
62725;BME280;49026;52.600;4.694;2022-08-21T02:19:29;101592.53;;;14.25;64.30
62725;BME280;49026;52.600;4.694;2022-08-21T02:21:55;101596.03;;;14.25;64.23
62725;BME280;49026;52.600;4.694;2022-08-21T02:24:22;101585.50;;;14.24;64.27
62725;BME280;49026;52.600;4.694;2022-08-21T02:26:47;101587.50;;;14.19;64.01
62725;BME280;49026;52.600;4.694;2022-08-21T02:29:13;101589.59;;;14.11;64.02
62725;BME280;49026;52.600;4.694;2022-08-21T02:31:38;101586.31;;;14.05;64.30
62725;BME280;49026;52.600;4.694;2022-08-21T02:34:06;101589.06;;;14.02;64.69
62725;BME280;49026;52.600;4.694;2022-08-21T02:36:32;101581.28;;;13.99;64.44
62725;BME280;49026;52.600;4.694;2022-08-21T02:38:57;101586.75;;;13.95;64.48
62725;BME280;49026;52.600;4.694;2022-08-21T02:41:23;101578.97;;;13.92;64.42
62725;BME280;49026;52.600;4.694;2022-08-21T02:43:49;101579.97;;;13.89;64.85
62725;BME280;49026;52.600;4.694;2022-08-21T02:46:16;101587.22;;;13.84;64.72
62725;BME280;49026;52.600;4.694;2022-08-21T02:48:44;101581.22;;;13.80;64.77
62725;BME280;49026;52.600;4.694;2022-08-21T02:51:16;101579.66;;;13.75;70.31
62725;BME280;49026;52.600;4.694;2022-08-21T02:53:49;101585.94;;;13.72;66.46
62725;BME280;49026;52.600;4.694;2022-08-21T02:56:20;101585.22;;;13.68;65.22
62725;BME280;49026;52.600;4.694;2022-08-21T02:58:48;101584.41;;;13.66;64.71
62725;BME280;49026;52.600;4.694;2022-08-21T03:01:15;101574.84;;;13.64;65.00
62725;BME280;49026;52.600;4.694;2022-08-21T03:03:42;101575.81;;;13.61;64.52
62725;BME280;49026;52.600;4.694;2022-08-21T03:06:09;101574.09;;;13.60;65.06
62725;BME280;49026;52.600;4.694;2022-08-21T03:08:35;101574.22;;;13.57;64.77
62725;BME280;49026;52.600;4.694;2022-08-21T03:11:00;101561.94;;;13.56;65.21
62725;BME280;49026;52.600;4.694;2022-08-21T03:13:26;101567.22;;;13.56;65.87
62725;BME280;49026;52.600;4.694;2022-08-21T03:15:55;101564.56;;;13.56;65.34
62725;BME280;49026;52.600;4.694;2022-08-21T03:18:21;101575.13;;;13.56;65.38
62725;BME280;49026;52.600;4.694;2022-08-21T03:20:47;101562.81;;;13.57;65.42
62725;BME280;49026;52.600;4.694;2022-08-21T03:23:14;101556.66;;;13.56;65.46
62725;BME280;49026;52.600;4.694;2022-08-21T03:25:43;101551.38;;;13.56;65.09
62725;BME280;49026;52.600;4.694;2022-08-21T03:28:12;101554.00;;;13.56;65.70
62725;BME280;49026;52.600;4.694;2022-08-21T03:30:38;101553.97;;;13.58;65.52
62725;BME280;49026;52.600;4.694;2022-08-21T03:33:03;101549.56;;;13.58;65.22
62725;BME280;49026;52.600;4.694;2022-08-21T03:35:29;101551.25;;;13.59;65.22
62725;BME280;49026;52.600;4.694;2022-08-21T03:37:54;101547.69;;;13.60;65.02
62725;BME280;49026;52.600;4.694;2022-08-21T03:40:21;101546.75;;;13.61;65.28
62725;BME280;49026;52.600;4.694;2022-08-21T03:42:47;101539.72;;;13.62;65.34
62725;BME280;49026;52.600;4.694;2022-08-21T03:45:17;101541.41;;;13.63;65.92
62725;BME280;49026;52.600;4.694;2022-08-21T03:48:00;101535.16;;;13.65;65.68
62725;BME280;49026;52.600;4.694;2022-08-21T03:50:32;101533.31;;;13.67;65.52
62725;BME280;49026;52.600;4.694;2022-08-21T03:52:58;101537.63;;;13.70;67.13
62725;BME280;49026;52.600;4.694;2022-08-21T03:55:29;101536.63;;;13.73;65.21
62725;BME280;49026;52.600;4.694;2022-08-21T03:57:54;101541.59;;;13.80;65.04
62725;BME280;49026;52.600;4.694;2022-08-21T04:00:20;101537.94;;;13.83;65.04
62725;BME280;49026;52.600;4.694;2022-08-21T04:02:46;101534.31;;;13.85;65.69
62725;BME280;49026;52.600;4.694;2022-08-21T04:05:13;101536.91;;;13.87;65.28
62725;BME280;49026;52.600;4.694;2022-08-21T04:07:39;101537.63;;;13.90;65.43
62725;BME280;49026;52.600;4.694;2022-08-21T04:10:06;101540.97;;;13.94;66.02
62725;BME280;49026;52.600;4.694;2022-08-21T04:12:32;101532.94;;;13.97;65.64
62725;BME280;49026;52.600;4.694;2022-08-21T04:14:57;101546.94;;;13.99;65.46
62725;BME280;49026;52.600;4.694;2022-08-21T04:17:23;101539.78;;;14.01;66.04
62725;BME280;49026;52.600;4.694;2022-08-21T04:19:48;101544.16;;;14.02;66.10
62725;BME280;49026;52.600;4.694;2022-08-21T04:22:15;101543.25;;;14.03;65.80
62725;BME280;49026;52.600;4.694;2022-08-21T04:24:40;101540.38;;;14.08;66.33
62725;BME280;49026;52.600;4.694;2022-08-21T04:27:05;101548.19;;;14.11;66.02
62725;BME280;49026;52.600;4.694;2022-08-21T04:29:30;101545.47;;;14.13;65.92
62725;BME280;49026;52.600;4.694;2022-08-21T04:31:56;101543.59;;;14.15;66.05
62725;BME280;49026;52.600;4.694;2022-08-21T04:34:21;101544.50;;;14.15;66.06
62725;BME280;49026;52.600;4.694;2022-08-21T04:36:46;101548.75;;;14.18;66.26
62725;BME280;49026;52.600;4.694;2022-08-21T04:39:14;101552.13;;;14.21;66.30
62725;BME280;49026;52.600;4.694;2022-08-21T04:41:39;101557.22;;;14.26;66.27
62725;BME280;49026;52.600;4.694;2022-08-21T04:44:04;101558.94;;;14.27;66.15
62725;BME280;49026;52.600;4.694;2022-08-21T04:46:29;101556.09;;;14.32;66.55
62725;BME280;49026;52.600;4.694;2022-08-21T04:48:55;101558.53;;;14.36;66.44
62725;BME280;49026;52.600;4.694;2022-08-21T04:51:26;101558.25;;;14.42;66.23
62725;BME280;49026;52.600;4.694;2022-08-21T04:53:54;101564.25;;;14.46;66.74
62725;BME280;49026;52.600;4.694;2022-08-21T04:56:36;101558.84;;;14.49;66.57
62725;BME280;49026;52.600;4.694;2022-08-21T04:59:07;101559.69;;;14.50;66.48
62725;BME280;49026;52.600;4.694;2022-08-21T05:01:36;101561.28;;;14.54;66.51
62725;BME280;49026;52.600;4.694;2022-08-21T05:04:08;101568.13;;;14.58;66.63
62725;BME280;49026;52.600;4.694;2022-08-21T05:06:42;101572.41;;;14.62;66.66
62725;BME280;49026;52.600;4.694;2022-08-21T05:09:09;101578.34;;;14.67;66.62
62725;BME280;49026;52.600;4.694;2022-08-21T05:11:37;101579.91;;;14.71;67.42
62725;BME280;49026;52.600;4.694;2022-08-21T05:14:03;101577.84;;;14.78;66.70
62725;BME280;49026;52.600;4.694;2022-08-21T05:16:28;101579.28;;;14.85;66.33
62725;BME280;49026;52.600;4.694;2022-08-21T05:18:54;101577.06;;;14.95;66.68
62725;BME280;49026;52.600;4.694;2022-08-21T05:21:19;101577.47;;;15.05;66.61
62725;BME280;49026;52.600;4.694;2022-08-21T05:23:45;101576.03;;;15.16;66.80
62725;BME280;49026;52.600;4.694;2022-08-21T05:26:13;101581.53;;;15.31;66.73
62725;BME280;49026;52.600;4.694;2022-08-21T05:28:39;101578.00;;;15.49;66.55
62725;BME280;49026;52.600;4.694;2022-08-21T05:31:04;101575.41;;;15.84;66.67
62725;BME280;49026;52.600;4.694;2022-08-21T05:33:29;101568.06;;;16.24;66.05
62725;BME280;49026;52.600;4.694;2022-08-21T05:35:55;101569.69;;;16.60;65.89
62725;BME280;49026;52.600;4.694;2022-08-21T05:38:21;101576.03;;;16.91;65.63
62725;BME280;49026;52.600;4.694;2022-08-21T05:40:47;101572.78;;;17.18;65.45
62725;BME280;49026;52.600;4.694;2022-08-21T05:43:13;101577.72;;;17.40;65.26
62725;BME280;49026;52.600;4.694;2022-08-21T05:45:38;101572.97;;;17.61;65.38
62725;BME280;49026;52.600;4.694;2022-08-21T05:48:12;101578.31;;;17.75;66.02
62725;BME280;49026;52.600;4.694;2022-08-21T05:50:38;101576.25;;;17.81;66.31
62725;BME280;49026;52.600;4.694;2022-08-21T05:53:05;101572.66;;;17.82;66.17
62725;BME280;49026;52.600;4.694;2022-08-21T05:55:30;101582.63;;;17.78;66.39
62725;BME280;49026;52.600;4.694;2022-08-21T05:57:58;101580.31;;;17.72;66.44
62725;BME280;49026;52.600;4.694;2022-08-21T06:00:24;101580.56;;;17.67;66.59
62725;BME280;49026;52.600;4.694;2022-08-21T06:02:49;101572.41;;;17.70;67.04
62725;BME280;49026;52.600;4.694;2022-08-21T06:05:16;101570.94;;;17.81;67.25
62725;BME280;49026;52.600;4.694;2022-08-21T06:07:41;101567.50;;;17.94;67.36
62725;BME280;49026;52.600;4.694;2022-08-21T06:10:07;101569.31;;;18.08;67.43
62725;BME280;49026;52.600;4.694;2022-08-21T06:12:32;101566.59;;;18.24;67.56
62725;BME280;49026;52.600;4.694;2022-08-21T06:14:57;101565.16;;;18.47;67.15
62725;BME280;49026;52.600;4.694;2022-08-21T06:17:27;101571.72;;;18.70;67.42
62725;BME280;49026;52.600;4.694;2022-08-21T06:19:53;101572.78;;;18.97;67.42
62725;BME280;49026;52.600;4.694;2022-08-21T06:22:19;101577.06;;;19.27;68.00
62725;BME280;49026;52.600;4.694;2022-08-21T06:24:45;101574.88;;;19.46;68.44
62725;BME280;49026;52.600;4.694;2022-08-21T06:27:13;101578.78;;;19.68;68.57
62725;BME280;49026;52.600;4.694;2022-08-21T06:29:40;101571.41;;;19.86;70.41
62725;BME280;49026;52.600;4.694;2022-08-21T06:32:05;101569.00;;;20.08;69.00
62725;BME280;49026;52.600;4.694;2022-08-21T06:34:36;101571.53;;;20.23;69.00
62725;BME280;49026;52.600;4.694;2022-08-21T06:37:01;101570.38;;;20.27;69.11
62725;BME280;49026;52.600;4.694;2022-08-21T06:39:27;101571.34;;;20.26;68.77
62725;BME280;49026;52.600;4.694;2022-08-21T06:41:52;101564.41;;;20.10;68.88
62725;BME280;49026;52.600;4.694;2022-08-21T06:44:20;101574.84;;;20.01;68.90
62725;BME280;49026;52.600;4.694;2022-08-21T06:46:48;101571.09;;;19.90;68.63
62725;BME280;49026;52.600;4.694;2022-08-21T06:49:13;101570.03;;;19.80;68.37
62725;BME280;49026;52.600;4.694;2022-08-21T06:51:39;101571.94;;;19.78;68.29
62725;BME280;49026;52.600;4.694;2022-08-21T06:54:04;101572.91;;;19.77;68.37
62725;BME280;49026;52.600;4.694;2022-08-21T06:56:30;101574.38;;;19.81;68.29
62725;BME280;49026;52.600;4.694;2022-08-21T06:58:55;101574.81;;;19.88;68.33
62725;BME280;49026;52.600;4.694;2022-08-21T07:01:26;101570.16;;;19.91;68.14
62725;BME280;49026;52.600;4.694;2022-08-21T07:03:52;101573.56;;;19.93;67.78
62725;BME280;49026;52.600;4.694;2022-08-21T07:06:17;101576.34;;;19.92;67.81
62725;BME280;49026;52.600;4.694;2022-08-21T07:08:43;101577.19;;;19.92;67.83
62725;BME280;49026;52.600;4.694;2022-08-21T07:11:14;101573.66;;;19.92;68.16
62725;BME280;49026;52.600;4.694;2022-08-21T07:13:42;101578.81;;;19.95;68.02
62725;BME280;49026;52.600;4.694;2022-08-21T07:16:07;101580.69;;;19.93;68.03
62725;BME280;49026;52.600;4.694;2022-08-21T07:18:35;101581.47;;;19.95;68.00
62725;BME280;49026;52.600;4.694;2022-08-21T07:21:03;101578.81;;;19.95;67.88
62725;BME280;49026;52.600;4.694;2022-08-21T07:23:32;101582.41;;;19.94;67.72
62725;BME280;49026;52.600;4.694;2022-08-21T07:26:01;101577.91;;;19.94;67.65
62725;BME280;49026;52.600;4.694;2022-08-21T07:28:28;101582.09;;;19.98;67.61
62725;BME280;49026;52.600;4.694;2022-08-21T07:30:58;101584.66;;;20.13;67.82
62725;BME280;49026;52.600;4.694;2022-08-21T07:33:25;101592.38;;;20.30;67.74
62725;BME280;49026;52.600;4.694;2022-08-21T07:35:51;101583.41;;;20.44;68.01
62725;BME280;49026;52.600;4.694;2022-08-21T07:38:20;101588.41;;;20.49;67.85
62725;BME280;49026;52.600;4.694;2022-08-21T07:40:46;101587.47;;;20.50;67.47
62725;BME280;49026;52.600;4.694;2022-08-21T07:43:13;101592.34;;;20.56;67.48
62725;BME280;49026;52.600;4.694;2022-08-21T07:45:44;101588.63;;;20.59;66.79
62725;BME280;49026;52.600;4.694;2022-08-21T07:48:10;101591.00;;;20.63;67.17
62725;BME280;49026;52.600;4.694;2022-08-21T07:50:35;101594.53;;;20.77;66.79
62725;BME280;49026;52.600;4.694;2022-08-21T07:53:03;101588.69;;;20.96;67.38
62725;BME280;49026;52.600;4.694;2022-08-21T07:55:29;101590.28;;;21.35;68.07
62725;BME280;49026;52.600;4.694;2022-08-21T07:57:54;101581.50;;;21.81;68.55
62725;BME280;49026;52.600;4.694;2022-08-21T08:00:24;101584.88;;;22.19;68.76
62725;BME280;49026;52.600;4.694;2022-08-21T08:02:51;101574.81;;;22.45;68.55
62725;BME280;49026;52.600;4.694;2022-08-21T08:05:19;101584.44;;;22.48;67.35
62725;BME280;49026;52.600;4.694;2022-08-21T08:07:46;101575.34;;;22.50;67.47
62725;BME280;49026;52.600;4.694;2022-08-21T08:10:14;101585.16;;;22.38;66.64
62725;BME280;49026;52.600;4.694;2022-08-21T08:12:41;101590.91;;;22.34;66.66
62725;BME280;49026;52.600;4.694;2022-08-21T08:15:11;101576.53;;;22.46;66.56
62725;BME280;49026;52.600;4.694;2022-08-21T08:17:36;101585.78;;;22.65;67.45
62725;BME280;49026;52.600;4.694;2022-08-21T08:20:05;101582.97;;;22.89;67.14
62725;BME280;49026;52.600;4.694;2022-08-21T08:22:35;101590.72;;;23.03;67.05
62725;BME280;49026;52.600;4.694;2022-08-21T08:25:04;101585.88;;;23.08;66.57
62725;BME280;49026;52.600;4.694;2022-08-21T08:27:30;101595.03;;;23.17;67.15
62725;BME280;49026;52.600;4.694;2022-08-21T08:29:55;101588.03;;;23.37;67.46
62725;BME280;49026;52.600;4.694;2022-08-21T08:32:20;101593.66;;;23.55;67.04
62725;BME280;49026;52.600;4.694;2022-08-21T08:34:46;101591.47;;;23.81;66.15
62725;BME280;49026;52.600;4.694;2022-08-21T08:37:18;101579.84;;;23.92;66.24
62725;BME280;49026;52.600;4.694;2022-08-21T08:39:44;101588.66;;;23.94;65.36
62725;BME280;49026;52.600;4.694;2022-08-21T08:42:14;101580.84;;;23.91;63.60
62725;BME280;49026;52.600;4.694;2022-08-21T08:44:47;101579.03;;;23.80;63.97
62725;BME280;49026;52.600;4.694;2022-08-21T08:47:16;101583.06;;;23.86;64.34
62725;BME280;49026;52.600;4.694;2022-08-21T08:50:05;101578.09;;;24.02;64.61
62725;BME280;49026;52.600;4.694;2022-08-21T08:52:36;101579.00;;;24.13;64.35
62725;BME280;49026;52.600;4.694;2022-08-21T08:55:18;101587.78;;;24.15;63.53
62725;BME280;49026;52.600;4.694;2022-08-21T08:57:46;101584.84;;;23.97;63.70
62725;BME280;49026;52.600;4.694;2022-08-21T09:00:17;101594.16;;;23.81;62.79
62725;BME280;49026;52.600;4.694;2022-08-21T09:02:48;101584.91;;;23.53;62.17
62725;BME280;49026;52.600;4.694;2022-08-21T09:05:28;101589.22;;;23.44;62.62
62725;BME280;49026;52.600;4.694;2022-08-21T09:11:03;101592.09;;;23.53;61.99
62725;BME280;49026;52.600;4.694;2022-08-21T09:24:48;101592.75;;;23.34;60.88
62725;BME280;49026;52.600;4.694;2022-08-21T09:27:18;101594.47;;;23.35;60.05
62725;BME280;49026;52.600;4.694;2022-08-21T09:29:47;101601.59;;;23.13;59.03
62725;BME280;49026;52.600;4.694;2022-08-21T09:32:20;101604.03;;;23.16;60.47
62725;BME280;49026;52.600;4.694;2022-08-21T09:35:03;101603.19;;;23.59;61.27
62725;BME280;49026;52.600;4.694;2022-08-21T09:37:32;101589.03;;;24.11;60.02
62725;BME280;49026;52.600;4.694;2022-08-21T09:39:59;101590.53;;;24.03;59.58
62725;BME280;49026;52.600;4.694;2022-08-21T09:42:30;101593.09;;;24.26;60.18
62725;BME280;49026;52.600;4.694;2022-08-21T09:45:10;101585.22;;;24.65;60.85
62725;BME280;49026;52.600;4.694;2022-08-21T09:47:36;101595.72;;;24.68;59.85
62725;BME280;49026;52.600;4.694;2022-08-21T09:50:14;101598.88;;;24.83;60.32
62725;BME280;49026;52.600;4.694;2022-08-21T09:52:49;101605.44;;;25.00;60.17
62725;BME280;49026;52.600;4.694;2022-08-21T09:55:19;101603.09;;;24.86;59.78
62725;BME280;49026;52.600;4.694;2022-08-21T09:58:04;101612.56;;;24.49;60.11
62725;BME280;49026;52.600;4.694;2022-08-21T10:00:32;101603.44;;;24.31;60.03
62725;BME280;49026;52.600;4.694;2022-08-21T10:03:14;101610.69;;;24.19;59.02
62725;BME280;49026;52.600;4.694;2022-08-21T10:05:49;101610.88;;;23.85;59.02
62725;BME280;49026;52.600;4.694;2022-08-21T10:08:22;101618.56;;;23.57;58.64
62725;BME280;49026;52.600;4.694;2022-08-21T10:10:57;101610.50;;;23.57;58.54
62725;BME280;49026;52.600;4.694;2022-08-21T10:16:13;101628.41;;;23.13;57.94
62725;BME280;49026;52.600;4.694;2022-08-21T10:18:42;101617.56;;;23.15;58.76
62725;BME280;49026;52.600;4.694;2022-08-21T10:21:23;101619.22;;;23.38;58.69
62725;BME280;49026;52.600;4.694;2022-08-21T10:29:57;101622.97;;;23.91;57.15
62725;BME280;49026;52.600;4.694;2022-08-21T10:35:28;101616.69;;;23.69;57.98
62725;BME280;49026;52.600;4.694;2022-08-21T10:46:14;101605.00;;;24.12;58.46
62725;BME280;49026;52.600;4.694;2022-08-21T10:48:51;101609.25;;;24.15;58.26
62725;BME280;49026;52.600;4.694;2022-08-21T10:51:40;101610.16;;;24.25;57.89
62725;BME280;49026;52.600;4.694;2022-08-21T10:57:00;101617.88;;;24.60;58.47
62725;BME280;49026;52.600;4.694;2022-08-21T10:59:32;101616.75;;;24.63;57.27
62725;BME280;49026;52.600;4.694;2022-08-21T11:02:33;101615.78;;;24.43;58.37
62725;BME280;49026;52.600;4.694;2022-08-21T11:05:17;101620.84;;;24.57;57.96
62725;BME280;49026;52.600;4.694;2022-08-21T11:10:18;101618.59;;;24.63;57.04
62725;BME280;49026;52.600;4.694;2022-08-21T11:12:56;101627.94;;;24.68;56.54
62725;BME280;49026;52.600;4.694;2022-08-21T11:15:48;101613.56;;;24.79;56.11
62725;BME280;49026;52.600;4.694;2022-08-21T11:18:24;101612.47;;;24.91;56.19
62725;BME280;49026;52.600;4.694;2022-08-21T11:21:02;101622.03;;;25.15;55.87
62725;BME280;49026;52.600;4.694;2022-08-21T11:23:40;101624.22;;;25.50;54.53
62725;BME280;49026;52.600;4.694;2022-08-21T11:26:21;101623.97;;;25.73;53.93
62725;BME280;49026;52.600;4.694;2022-08-21T11:28:59;101619.56;;;25.72;54.10
62725;BME280;49026;52.600;4.694;2022-08-21T11:31:44;101622.69;;;25.58;53.76
62725;BME280;49026;52.600;4.694;2022-08-21T11:37:08;101630.59;;;25.69;53.64
62725;BME280;49026;52.600;4.694;2022-08-21T11:40:05;101632.03;;;25.73;53.60
62725;BME280;49026;52.600;4.694;2022-08-21T11:43:02;101631.91;;;25.84;53.06
62725;BME280;49026;52.600;4.694;2022-08-21T11:45:55;101636.97;;;26.27;53.09
62725;BME280;49026;52.600;4.694;2022-08-21T11:48:48;101629.03;;;26.35;52.79
62725;BME280;49026;52.600;4.694;2022-08-21T11:51:23;101629.59;;;26.29;52.82
62725;BME280;49026;52.600;4.694;2022-08-21T11:54:21;101633.13;;;26.19;53.18
62725;BME280;49026;52.600;4.694;2022-08-21T11:56:57;101631.22;;;26.49;53.53
62725;BME280;49026;52.600;4.694;2022-08-21T12:02:22;101636.91;;;26.46;51.95
62725;BME280;49026;52.600;4.694;2022-08-21T12:04:56;101635.28;;;26.16;52.04
62725;BME280;49026;52.600;4.694;2022-08-21T12:10:03;101645.66;;;25.91;52.40
62725;BME280;49026;52.600;4.694;2022-08-21T12:12:33;101636.72;;;26.10;52.01
62725;BME280;49026;52.600;4.694;2022-08-21T12:15:14;101644.94;;;26.18;52.00
62725;BME280;49026;52.600;4.694;2022-08-21T12:17:52;101652.00;;;26.19;51.99
62725;BME280;49026;52.600;4.694;2022-08-21T12:22:55;101650.59;;;25.96;50.42
62725;BME280;49026;52.600;4.694;2022-08-21T12:25:37;101654.44;;;26.03;51.70
62725;BME280;49026;52.600;4.694;2022-08-21T12:28:08;101653.69;;;26.30;51.09
62725;BME280;49026;52.600;4.694;2022-08-21T12:30:40;101650.25;;;26.38;50.56
62725;BME280;49026;52.600;4.694;2022-08-21T12:33:24;101643.47;;;26.34;49.67
62725;BME280;49026;52.600;4.694;2022-08-21T12:36:05;101655.97;;;26.15;49.44
62725;BME280;49026;52.600;4.694;2022-08-21T12:38:39;101650.88;;;26.22;49.93
62725;BME280;49026;52.600;4.694;2022-08-21T12:41:16;101651.38;;;26.55;48.88
62725;BME280;49026;52.600;4.694;2022-08-21T12:44:07;101651.66;;;26.52;49.01
62725;BME280;49026;52.600;4.694;2022-08-21T12:46:44;101654.28;;;26.71;47.80
62725;BME280;49026;52.600;4.694;2022-08-21T12:49:15;101653.06;;;26.66;48.21
62725;BME280;49026;52.600;4.694;2022-08-21T12:51:52;101654.75;;;26.57;46.92
62725;BME280;49026;52.600;4.694;2022-08-21T12:54:28;101659.13;;;26.58;47.62
62725;BME280;49026;52.600;4.694;2022-08-21T12:56:57;101647.91;;;26.72;48.07
62725;BME280;49026;52.600;4.694;2022-08-21T12:59:22;101662.47;;;26.89;48.11
62725;BME280;49026;52.600;4.694;2022-08-21T13:01:50;101657.75;;;26.91;47.08
62725;BME280;49026;52.600;4.694;2022-08-21T13:04:20;101651.78;;;26.50;47.28
62725;BME280;49026;52.600;4.694;2022-08-21T13:06:49;101662.78;;;26.19;47.74
62725;BME280;49026;52.600;4.694;2022-08-21T13:09:20;101656.25;;;25.93;47.99
62725;BME280;49026;52.600;4.694;2022-08-21T13:11:49;101659.94;;;25.82;48.18
62725;BME280;49026;52.600;4.694;2022-08-21T13:14:29;101664.06;;;26.05;48.80
62725;BME280;49026;52.600;4.694;2022-08-21T13:16:57;101654.25;;;26.24;48.15
62725;BME280;49026;52.600;4.694;2022-08-21T13:19:25;101663.03;;;26.36;47.40
62725;BME280;49026;52.600;4.694;2022-08-21T13:21:51;101663.91;;;26.36;47.70
62725;BME280;49026;52.600;4.694;2022-08-21T13:24:30;101657.22;;;26.31;46.99
62725;BME280;49026;52.600;4.694;2022-08-21T13:26:57;101651.38;;;26.45;48.11
62725;BME280;49026;52.600;4.694;2022-08-21T13:29:32;101657.19;;;26.50;47.26
62725;BME280;49026;52.600;4.694;2022-08-21T13:32:03;101651.13;;;26.29;47.43
62725;BME280;49026;52.600;4.694;2022-08-21T13:34:35;101657.72;;;25.97;47.71
62725;BME280;49026;52.600;4.694;2022-08-21T13:37:04;101657.66;;;25.77;47.87
62725;BME280;49026;52.600;4.694;2022-08-21T13:39:30;101657.69;;;25.58;48.60
62725;BME280;49026;52.600;4.694;2022-08-21T13:41:59;101660.50;;;25.66;48.44
62725;BME280;49026;52.600;4.694;2022-08-21T13:44:45;101660.94;;;25.71;47.31
62725;BME280;49026;52.600;4.694;2022-08-21T13:47:15;101665.28;;;25.52;48.89
62725;BME280;49026;52.600;4.694;2022-08-21T13:49:44;101660.06;;;25.70;48.35
62725;BME280;49026;52.600;4.694;2022-08-21T13:52:22;101674.69;;;26.07;47.89
62725;BME280;49026;52.600;4.694;2022-08-21T13:54:54;101667.56;;;26.35;47.08